Time;durP1;ratioP1;P1;durP2;ratioP2;P2;SDS_P1;SDS_P2;PMS_P1;PMS_P2;Temp;Humidity;BMP_temperature;BMP_pressure;BME280_temperature;BME280_humidity;BME280_pressure;Samples;Min_cycle;Max_cycle;Signal;HPM_P1;HPM_P2
2020/12/01 00:00:19;;;;;;;;;;;;;;;;;;5113262;28;1085;-77
2020/12/01 00:02:46;;;;;;;;;;;;;;;;;;5113356;28;1339;-78
2020/12/01 00:05:14;;;;;;;;;;;;;;;;;;5114621;28;1201;-77
2020/12/01 00:07:43;;;;;;;;;;;;;;;;;;5113034;28;1262;-78
2020/12/01 00:10:13;;;;;;;;;;;;;;;;;;5114918;28;1139;-78
2020/12/01 00:12:40;;;;;;;;;;;;;;;;;;5115116;28;1217;-78
2020/12/01 00:15:07;;;;;;;;;;;;;;;;;;5114866;28;2000;-78
2020/12/01 00:17:35;;;;;;;;;;;;;;;;;;5113934;28;1155;-77
2020/12/01 00:20:01;;;;;;;;;;;;;;;;;;5103526;28;1152;-78
2020/12/01 00:22:28;;;;;;;;;;;;;;;;;;5114627;28;1496;-79
2020/12/01 00:24:55;;;;;;;;;;;;;;;;;;5116132;27;1095;-77
2020/12/01 00:27:22;;;;;;;;;;;;;;;;;;5113828;28;1166;-79
2020/12/01 00:29:49;;;;;;;;;;;;;;;;;;5110386;28;1107;-78
2020/12/01 00:32:15;;;;;;;;;;;;;;;;;;5110828;28;1243;-78
2020/12/01 00:34:42;;;;;;;;;;;;;;;;;;5110233;28;1991;-78
2020/12/01 00:37:09;;;;;;;;;;;;;;;;;;5110225;28;1192;-77
2020/12/01 00:39:35;;;;;;;;;;;;;;;;;;5111564;28;1144;-79
2020/12/01 00:42:02;;;;;;;;;;;;;;;;;;5111315;28;1128;-78
2020/12/01 00:44:30;;;;;;;;;;;;;;;;;;5112024;28;1118;-79
2020/12/01 00:46:57;;;;;;;;;;;;;;;;;;5111685;28;1379;-78
2020/12/01 00:49:23;;;;;;;;;;;;;;;;;;5111456;28;1143;-77
2020/12/01 00:51:51;;;;;;;;;;;;;;;;;;5105374;28;1593;-78
2020/12/01 00:54:18;;;;;;;;;;;;;;;;;;5091215;28;2412;-77
2020/12/01 00:56:45;;;;;;;;;;;;;;;;;;5098677;28;1901;-78
2020/12/01 00:59:12;;;;;;;;;;;;;;;;;;5091509;28;1061;-78
2020/12/01 01:01:41;;;;;;;;;;;;;;;;;;5090324;28;1567;-77
2020/12/01 01:04:07;;;;;;;;;;;;;;;;;;5090616;28;1140;-79
2020/12/01 01:06:34;;;;;;;;;;;;;;;;;;5089551;28;1005;-78
2020/12/01 01:09:00;;;;;;;;;;;;;;;;;;5089558;28;1633;-78
2020/12/01 01:11:29;;;;;;;;;;;;;;;;;;5090151;28;1552;-77
2020/12/01 01:13:55;;;;;;;;;;;;;;;;;;5090014;28;1556;-77
2020/12/01 01:16:24;;;;;;;;;;;;;;;;;;5093990;28;2468;-77
2020/12/01 01:18:51;;;;;;;;;;;;;;;;;;5104063;28;1699;-78
2020/12/01 01:21:18;;;;;;;;;;;;;;;;;;5103135;28;1458;-79
2020/12/01 01:23:44;;;;;;;;;;;;;;;;;;5090025;28;2064;-78
2020/12/01 01:26:11;;;;;;;;;;;;;;;;;;5087868;28;1690;-78
2020/12/01 01:28:38;;;;;;;;;;;;;;;;;;5089719;28;1156;-78
2020/12/01 01:31:05;;;;;;;;;;;;;;;;;;5089377;28;1746;-77
2020/12/01 01:33:32;;;;;;;;;;;;;;;;;;5089758;28;1081;-78
2020/12/01 01:36:00;;;;;;;;;;;;;;;;;;5090705;28;1934;-79
2020/12/01 01:38:27;;;;;;;;;;;;;;;;;;5107336;28;1454;-78
2020/12/01 01:40:55;;;;;;;;;;;;;;;;;;5110337;28;1113;-80
2020/12/01 01:43:22;;;;;;;;;;;;;;;;;;5109980;28;1108;-78
2020/12/01 01:45:50;;;;;;;;;;;;;;;;;;5104664;28;1447;-79
2020/12/01 01:48:19;;;;;;;;;;;;;;;;;;5092815;28;1647;-80
2020/12/01 01:50:50;;;;;;;;;;;;;;;;;;5094999;28;1513;-80
2020/12/01 01:53:18;;;;;;;;;;;;;;;;;;5089331;28;1591;-78
2020/12/01 01:55:46;;;;;;;;;;;;;;;;;;5089133;28;1997;-78
2020/12/01 01:58:16;;;;;;;;;;;;;;;;;;5089348;28;1299;-78
2020/12/01 02:00:56;;;;;;;;;;;;;;;;;;5101497;28;1384;-79
2020/12/01 02:03:27;;;;;;;;;;;;;;;;;;5089922;28;1645;-77
2020/12/01 02:05:53;;;;;;;;;;;;;;;;;;5089103;28;1029;-78
2020/12/01 02:08:23;;;;;;;;;;;;;;;;;;5090586;28;1524;-78
2020/12/01 02:10:49;;;;;;;;;;;;;;;;;;5110538;28;1001;-79
2020/12/01 02:13:17;;;;;;;;;;;;;;;;;;5109666;28;1051;-78
2020/12/01 02:15:46;;;;;;;;;;;;;;;;;;5110792;28;1910;-78
2020/12/01 02:18:14;;;;;;;;;;;;;;;;;;5098180;28;1524;-78
2020/12/01 02:20:41;;;;;;;;;;;;;;;;;;5086636;28;1728;-78
2020/12/01 02:23:09;;;;;;;;;;;;;;;;;;5092235;28;1674;-79
2020/12/01 02:25:36;;;;;;;;;;;;;;;;;;5092309;28;1620;-79
2020/12/01 02:28:04;;;;;;;;;;;;;;;;;;5093247;28;1064;-79
2020/12/01 02:30:31;;;;;;;;;;;;;;;;;;5075066;28;1338;-78
2020/12/01 02:32:59;;;;;;;;;;;;;;;;;;5094774;28;1538;-79
2020/12/01 02:35:28;;;;;;;;;;;;;;;;;;5094416;28;1891;-79
2020/12/01 02:37:55;;;;;;;;;;;;;;;;;;5093678;28;1455;-78
2020/12/01 02:40:21;;;;;;;;;;;;;;;;;;5075544;28;1424;-78
2020/12/01 02:42:51;;;;;;;;;;;;;;;;;;5094157;28;1282;-79
2020/12/01 02:45:20;;;;;;;;;;;;;;;;;;5104105;28;1659;-78
2020/12/01 02:47:46;;;;;;;;;;;;;;;;;;5093141;28;1783;-78
2020/12/01 02:50:13;;;;;;;;;;;;;;;;;;5091234;28;1580;-78
2020/12/01 02:52:40;;;;;;;;;;;;;;;;;;5093040;28;1096;-78
2020/12/01 02:55:07;;;;;;;;;;;;;;;;;;5093120;28;1906;-78
2020/12/01 02:57:34;;;;;;;;;;;;;;;;;;5094450;28;1097;-79
2020/12/01 03:00:01;;;;;;;;;;;;;;;;;;5108390;28;1481;-79
2020/12/01 03:02:29;;;;;;;;;;;;;;;;;;5107700;28;1593;-78
2020/12/01 03:04:57;;;;;;;;;;;;;;;;;;5092780;28;1632;-78
2020/12/01 03:07:23;;;;;;;;;;;;;;;;;;5102876;28;1580;-78
2020/12/01 03:09:50;;;;;;;;;;;;;;;;;;5098072;28;1512;-78
2020/12/01 03:12:17;;;;;;;;;;;;;;;;;;5092785;28;1026;-79
2020/12/01 03:14:43;;;;;;;;;;;;;;;;;;5097009;28;1793;-78
2020/12/01 03:17:10;;;;;;;;;;;;;;;;;;5108277;28;1987;-78
2020/12/01 03:19:38;;;;;;;;;;;;;;;;;;5093498;28;1132;-78
2020/12/01 03:22:05;;;;;;;;;;;;;;;;;;5093015;28;1705;-78
2020/12/01 03:24:32;;;;;;;;;;;;;;;;;;5093605;28;1455;-80
2020/12/01 03:27:00;;;;;;;;;;;;;;;;;;5102485;28;1724;-78
2020/12/01 03:29:27;;;;;;;;;;;;;;;;;;5099538;28;1427;-77
2020/12/01 03:31:53;;;;;;;;;;;;;;;;;;5105086;28;1471;-79
2020/12/01 03:34:20;;;;;;;;;;;;;;;;;;5094260;28;1608;-78
2020/12/01 03:36:49;;;;;;;;;;;;;;;;;;5108148;28;1914;-78
2020/12/01 03:39:16;;;;;;;;;;;;;;;;;;5094351;28;1423;-77
2020/12/01 03:41:43;;;;;;;;;;;;;;;;;;5093117;28;1564;-77
2020/12/01 03:44:09;;;;;;;;;;;;;;;;;;5094481;28;937;-77
2020/12/01 03:46:36;;;;;;;;;;;;;;;;;;5094618;28;1136;-78
2020/12/01 03:49:04;;;;;;;;;;;;;;;;;;5076647;28;1429;-78
2020/12/01 03:51:31;;;;;;;;;;;;;;;;;;5095901;28;1089;-77
2020/12/01 03:53:59;;;;;;;;;;;;;;;;;;5095743;28;1074;-77
2020/12/01 03:56:25;;;;;;;;;;;;;;;;;;5094865;28;1910;-80
2020/12/01 03:58:52;;;;;;;;;;;;;;;;;;5090330;28;1431;-79
2020/12/01 04:01:19;;;;;;;;;;;;;;;;;;5090427;28;1302;-78
2020/12/01 04:03:45;;;;;;;;;;;;;;;;;;5090968;28;1565;-78
2020/12/01 04:06:12;;;;;;;;;;;;;;;;;;5103859;28;1631;-78
2020/12/01 04:08:39;;;;;;;;;;;;;;;;;;5083504;28;1588;-79
2020/12/01 04:11:07;;;;;;;;;;;;;;;;;;5109911;28;1644;-79
2020/12/01 04:13:34;;;;;;;;;;;;;;;;;;5092156;28;1508;-78
2020/12/01 04:16:01;;;;;;;;;;;;;;;;;;5091316;28;1969;-79
2020/12/01 04:18:29;;;;;;;;;;;;;;;;;;5092284;28;1628;-77
2020/12/01 04:20:56;;;;;;;;;;;;;;;;;;5090934;28;1694;-80
2020/12/01 04:23:23;;;;;;;;;;;;;;;;;;5090597;28;1572;-80
2020/12/01 04:25:50;;;;;;;;;;;;;;;;;;5090162;28;1683;-78
2020/12/01 04:28:18;;;;;;;;;;;;;;;;;;5090889;28;1688;-79
2020/12/01 04:30:46;;;;;;;;;;;;;;;;;;5091016;28;1680;-79
2020/12/01 04:33:14;;;;;;;;;;;;;;;;;;5105015;28;1630;-79
2020/12/01 04:35:41;;;;;;;;;;;;;;;;;;5090834;28;1922;-80
2020/12/01 04:38:08;;;;;;;;;;;;;;;;;;5094794;28;1731;-78
2020/12/01 04:40:36;;;;;;;;;;;;;;;;;;5072419;28;1637;-79
2020/12/01 04:43:05;;;;;;;;;;;;;;;;;;5087410;28;1663;-79
2020/12/01 04:45:35;;;;;;;;;;;;;;;;;;5106593;28;1633;-79
2020/12/01 04:48:04;;;;;;;;;;;;;;;;;;5100409;28;1710;-78
2020/12/01 04:50:35;;;;;;;;;;;;;;;;;;5090429;28;1084;-79
2020/12/01 04:53:22;;;;;;;;;;;;;;;;;;5089517;28;1604;-78
2020/12/01 04:55:59;;;;;;;;;;;;;;;;;;5091248;28;1909;-79
2020/12/01 04:58:56;;;;;;;;;;;;;;;;;;5091566;28;1070;-78
2020/12/01 05:01:34;;;;;;;;;;;;;;;;;;5090214;28;1779;-79
2020/12/01 05:04:06;;;;;;;;;;;;;;;;;;5091778;28;1815;-79
2020/12/01 05:06:48;;;;;;;;;;;;;;;;;;5090533;28;1308;-77
2020/12/01 05:09:18;;;;;;;;;;;;;;;;;;5090420;28;1495;-79
2020/12/01 05:11:49;;;;;;;;;;;;;;;;;;5071703;28;1679;-79
2020/12/01 05:14:34;;;;;;;;;;;;;;;;;;5090251;28;1081;-78
2020/12/01 05:17:16;;;;;;;;;;;;;;;;;;5090306;28;1906;-78
2020/12/01 05:19:44;;;;;;;;;;;;;;;;;;5077231;28;1599;-80
2020/12/01 05:22:11;;;;;;;;;;;;;;;;;;5089979;28;1675;-79
2020/12/01 05:24:42;;;;;;;;;;;;;;;;;;5090526;28;1627;-79
2020/12/01 05:27:24;;;;;;;;;;;;;;;;;;5101230;28;1528;-79
2020/12/01 05:29:55;;;;;;;;;;;;;;;;;;5103042;28;1861;-79
2020/12/01 05:32:29;;;;;;;;;;;;;;;;;;5090125;28;1503;-78
2020/12/01 05:35:06;;;;;;;;;;;;;;;;;;5091013;28;1411;-79
2020/12/01 05:37:33;;;;;;;;;;;;;;;;;;5110405;28;1431;-78
2020/12/01 05:40:04;;;;;;;;;;;;;;;;;;5096434;28;1508;-78
2020/12/01 05:42:31;;;;;;;;;;;;;;;;;;5090051;28;1140;-79
2020/12/01 05:44:59;;;;;;;;;;;;;;;;;;5091269;28;1000;-78
2020/12/01 05:47:33;;;;;;;;;;;;;;;;;;5091596;28;1458;-80
2020/12/01 05:50:07;;;;;;;;;;;;;;;;;;5103431;28;1497;-80
2020/12/01 05:52:43;;;;;;;;;;;;;;;;;;5089970;28;1455;-78
2020/12/01 05:55:13;;;;;;;;;;;;;;;;;;5090974;28;1910;-78
2020/12/01 05:57:40;;;;;;;;;;;;;;;;;;5094680;28;1848;-78
2020/12/01 06:00:08;;;;;;;;;;;;;;;;;;5107500;28;1597;-79
2020/12/01 06:02:39;;;;;;;;;;;;;;;;;;5095498;28;1671;-79
2020/12/01 06:05:09;;;;;;;;;;;;;;;;;;5108091;28;1567;-79
2020/12/01 06:07:36;;;;;;;;;;;;;;;;;;5105529;28;1770;-79
2020/12/01 06:10:27;;;;;;;;;;;;;;;;;;5112580;28;1553;-80
2020/12/01 06:13:06;;;;;;;;;;;;;;;;;;5094597;28;1749;-80
2020/12/01 06:15:34;;;;;;;;;;;;;;;;;;5093975;28;1887;-79
2020/12/01 06:18:05;;;;;;;;;;;;;;;;;;5094108;28;1242;-80
2020/12/01 06:20:36;;;;;;;;;;;;;;;;;;5095371;28;1466;-79
2020/12/01 06:23:20;;;;;;;;;;;;;;;;;;5110017;28;1593;-79
2020/12/01 06:26:07;;;;;;;;;;;;;;;;;;5110008;28;1466;-77
2020/12/01 06:28:55;;;;;;;;;;;;;;;;;;5098454;28;1498;-79
2020/12/01 06:31:51;;;;;;;;;;;;;;;;;;5106290;28;1238;-79
2020/12/01 06:34:36;;;;;;;;;;;;;;;;;;5050763;28;1628;-78
2020/12/01 06:37:33;;;;;;;;;;;;;;;;;;5096985;28;1906;-79
2020/12/01 06:40:07;;;;;;;;;;;;;;;;;;5078441;28;1433;-80
2020/12/01 06:42:38;;;;;;;;;;;;;;;;;;5086334;28;1139;-79
2020/12/01 06:45:13;;;;;;;;;;;;;;;;;;5095521;28;1581;-79
2020/12/01 06:47:41;;;;;;;;;;;;;;;;;;5107840;28;1592;-78
2020/12/01 06:50:14;;;;;;;;;;;;;;;;;;5112492;28;1655;-79
2020/12/01 06:52:41;;;;;;;;;;;;;;;;;;5096014;28;1069;-78
2020/12/01 06:55:28;;;;;;;;;;;;;;;;;;5101486;28;1442;-78
2020/12/01 06:58:06;;;;;;;;;;;;;;;;;;5117053;28;1112;-78
2020/12/01 07:00:33;;;;;;;;;;;;;;;;;;5112371;28;1630;-79
2020/12/01 07:03:08;;;;;;;;;;;;;;;;;;5122154;28;1573;-81
2020/12/01 07:05:37;;;;;;;;;;;;;;;;;;5126792;28;1372;-82
2020/12/01 07:08:16;;;;;;;;;;;;;;;;;;5136043;28;1100;-82
2020/12/01 07:11:00;;;;;;;;;;;;;;;;;;5114785;28;1100;-79
2020/12/01 07:13:36;;;;;;;;;;;;;;;;;;5116965;28;1784;-82
2020/12/01 07:16:07;;;;;;;;;;;;;;;;;;5113646;28;1906;-81
2020/12/01 07:18:36;;;;;;;;;;;;;;;;;;5118226;28;1391;-78
2020/12/01 07:21:16;;;;;;;;;;;;;;;;;;5117750;27;1509;-80
2020/12/01 07:23:49;;;;;;;;;;;;;;;;;;5107220;28;1568;-79
2020/12/01 07:26:26;;;;;;;;;;;;;;;;;;5118335;28;1486;-81
2020/12/01 07:29:01;;;;;;;;;;;;;;;;;;5122759;28;1659;-82
2020/12/01 07:31:29;;;;;;;;;;;;;;;;;;5121037;22;1742;-82
2020/12/01 07:33:58;;;;;;;;;;;;;;;;;;5104907;28;1366;-79
2020/12/01 07:36:29;;;;;;;;;;;;;;;;;;5096722;28;1914;-80
2020/12/01 07:39:08;;;;;;;;;;;;;;;;;;5105571;28;1727;-82
2020/12/01 07:41:51;;;;;;;;;;;;;;;;;;5110036;28;1694;-82
2020/12/01 07:44:21;;;;;;;;;;;;;;;;;;5111238;28;1820;-83
2020/12/01 07:47:00;;;;;;;;;;;;;;;;;;5112720;28;1497;-82
2020/12/01 07:49:28;;;;;;;;;;;;;;;;;;5114732;28;1680;-82
2020/12/01 07:52:01;;;;;;;;;;;;;;;;;;5111206;28;1690;-82
2020/12/01 07:54:30;;;;;;;;;;;;;;;;;;5110476;28;1092;-81
2020/12/01 07:56:56;;;;;;;;;;;;;;;;;;5103908;28;1907;-79
2020/12/01 07:59:26;;;;;;;;;;;;;;;;;;5123403;28;1110;-81
2020/12/01 08:02:05;;;;;;;;;;;;;;;;;;5120766;28;1397;-83
2020/12/01 08:04:34;;;;;;;;;;;;;;;;;;5120022;28;1104;-82
2020/12/01 08:07:03;;;;;;;;;;;;;;;;;;5100267;28;1105;-81
2020/12/01 08:09:31;;;;;;;;;;;;;;;;;;5124811;28;1234;-80
2020/12/01 08:12:08;;;;;;;;;;;;;;;;;;5097800;28;1575;-82
2020/12/01 08:14:38;;;;;;;;;;;;;;;;;;5102426;28;1534;-82
2020/12/01 08:17:08;;;;;;;;;;;;;;;;;;5107963;28;2000;-82
2020/12/01 08:19:35;;;;;;;;;;;;;;;;;;5108689;28;1016;-82
2020/12/01 08:22:06;;;;;;;;;;;;;;;;;;5110289;28;1390;-82
2020/12/01 08:24:36;;;;;;;;;;;;;;;;;;5109576;28;1391;-82
2020/12/01 08:27:05;;;;;;;;;;;;;;;;;;5109983;28;1850;-82
2020/12/01 08:29:33;;;;;;;;;;;;;;;;;;5092525;28;1723;-83
2020/12/01 08:32:05;;;;;;;;;;;;;;;;;;5101992;28;1703;-82
2020/12/01 08:34:39;;;;;;;;;;;;;;;;;;5111048;28;2003;-83
2020/12/01 08:37:18;;;;;;;;;;;;;;;;;;5109283;28;1882;-82
2020/12/01 08:39:56;;;;;;;;;;;;;;;;;;5114807;28;1779;-82
2020/12/01 08:42:54;;;;;;;;;;;;;;;;;;5097188;28;1483;-81
2020/12/01 08:45:38;;;;;;;;;;;;;;;;;;5032141;28;1193;-83
2020/12/01 08:48:16;;;;;;;;;;;;;;;;;;5105308;28;1779;-82
2020/12/01 08:50:59;;;;;;;;;;;;;;;;;;5113046;28;1093;-82
2020/12/01 08:53:42;;;;;;;;;;;;;;;;;;5114412;28;1167;-82
2020/12/01 08:56:29;;;;;;;;;;;;;;;;;;5105038;28;1957;-82
2020/12/01 08:59:01;;;;;;;;;;;;;;;;;;5098345;28;1171;-82
2020/12/01 09:01:44;;;;;;;;;;;;;;;;;;5110742;28;1528;-82
2020/12/01 09:04:24;;;;;;;;;;;;;;;;;;5111808;28;1081;-82
2020/12/01 09:06:56;;;;;;;;;;;;;;;;;;5071134;28;2058;-81
2020/12/01 09:09:29;;;;;;;;;;;;;;;;;;5106616;28;1754;-80
2020/12/01 09:17:47;;;;;;;;;;;;;;;;;;5111802;28;1898;-79
2020/12/01 09:20:58;;;;;;;;;;;;;;;;;;5112823;28;1752;-78
2020/12/01 09:23:27;;;;;;;;;;;;;;;;;;5113314;28;1990;-82
2020/12/01 09:26:15;;;;;;;;;;;;;;;;;;5114925;28;1163;-79
2020/12/01 09:28:51;;;;;;;;;;;;;;;;;;5112163;28;1455;-81
2020/12/01 09:31:21;;;;;;;;;;;;;;;;;;5115915;28;1799;-78
2020/12/01 09:33:53;;;;;;;;;;;;;;;;;;5102026;28;1677;-84
2020/12/01 09:36:23;;;;;;;;;;;;;;;;;;5111708;28;1879;-83
2020/12/01 09:38:56;;;;;;;;;;;;;;;;;;5111198;28;1799;-84
2020/12/01 09:41:24;;;;;;;;;;;;;;;;;;5112017;28;1072;-82
2020/12/01 09:44:17;;;;;;;;;;;;;;;;;;5110301;28;1632;-82
2020/12/01 09:46:51;;;;;;;;;;;;;;;;;;5108314;28;1750;-82
2020/12/01 09:49:18;;;;;;;;;;;;;;;;;;5104609;28;1825;-82
2020/12/01 09:51:57;;;;;;;;;;;;;;;;;;5092773;28;1053;-81
2020/12/01 09:54:33;;;;;;;;;;;;;;;;;;5095828;28;1096;-81
2020/12/01 09:57:06;;;;;;;;;;;;;;;;;;5107850;28;1879;-81
2020/12/01 10:00:04;;;;;;;;;;;;;;;;;;5111652;28;1123;-82
2020/12/01 10:03:27;;;;;;;;;;;;;;;;;;5109819;28;1737;-82
2020/12/01 10:08:57;;;;;;;;;;;;;;;;;;5111914;28;1790;-81
2020/12/01 10:12:03;;;;;;;;;;;;;;;;;;5098733;28;1484;-80
2020/12/01 10:17:50;;;;;;;;;;;;;;;;;;5019024;28;1954;-81
2020/12/01 10:35:10;;;;;;;;;;;;;;;;;;5114866;28;1550;-81
2020/12/01 10:37:38;;;;;;;;;;;;;;;;;;5083001;28;2018;-81
2020/12/01 10:40:39;;;;;;;;;;;;;;;;;;5130824;22;2075;-81
2020/12/01 10:43:07;;;;;;;;;;;;;;;;;;5092423;28;1938;-80
2020/12/01 10:45:41;;;;;;;;;;;;;;;;;;5088760;22;1786;-78
2020/12/01 10:48:14;;;;;;;;;;;;;;;;;;5101213;28;1675;-81
2020/12/01 10:50:41;;;;;;;;;;;;;;;;;;5063785;28;1722;-78
2020/12/01 10:58:31;;;;;;;;;;;;;;;;;;5405134;22;3515;-81
2020/12/01 11:01:13;;;;;;;;;;;;;;;;;;5334940;22;1951;-82
2020/12/01 11:03:41;;;;;;;;;;;;;;;;;;5108552;28;1455;-78
2020/12/01 11:06:10;;;;;;;;;;;;;;;;;;5128289;28;1059;-79
2020/12/01 11:08:37;;;;;;;;;;;;;;;;;;5130937;28;1558;-80
2020/12/01 11:11:27;;;;;;;;;;;;;;;;;;5124843;28;2104;-80
2020/12/01 11:14:32;;;;;;;;;;;;;;;;;;5114042;28;1522;-83
2020/12/01 11:17:08;;;;;;;;;;;;;;;;;;5119366;28;1965;-78
2020/12/01 11:19:57;;;;;;;;;;;;;;;;;;5127008;28;1692;-80
2020/12/01 11:22:25;;;;;;;;;;;;;;;;;;5124575;28;1792;-79
2020/12/01 11:24:53;;;;;;;;;;;;;;;;;;5160999;22;1652;-82
2020/12/01 11:27:21;;;;;;;;;;;;;;;;;;5113510;28;1865;-81
2020/12/01 11:30:04;;;;;;;;;;;;;;;;;;5115246;28;1745;-80
2020/12/01 11:32:33;;;;;;;;;;;;;;;;;;5171854;22;1983;-81
2020/12/01 11:35:03;;;;;;;;;;;;;;;;;;5133981;28;1501;-79
2020/12/01 11:37:45;;;;;;;;;;;;;;;;;;5130938;28;1957;-82
2020/12/01 11:40:20;;;;;;;;;;;;;;;;;;5136850;28;1570;-82
2020/12/01 11:42:56;;;;;;;;;;;;;;;;;;5189981;22;1962;-81
2020/12/01 11:45:38;;;;;;;;;;;;;;;;;;5119926;28;1935;-82
2020/12/01 11:48:32;;;;;;;;;;;;;;;;;;5125005;28;1942;-79
2020/12/01 11:51:01;;;;;;;;;;;;;;;;;;5119370;28;1498;-81
2020/12/01 11:53:44;;;;;;;;;;;;;;;;;;5123055;28;1844;-78
2020/12/01 11:56:11;;;;;;;;;;;;;;;;;;5244020;22;1993;-80
2020/12/01 11:59:02;;;;;;;;;;;;;;;;;;5324478;22;1989;-79
2020/12/01 12:01:35;;;;;;;;;;;;;;;;;;5111053;28;1693;-81
2020/12/01 12:04:11;;;;;;;;;;;;;;;;;;5148214;22;1781;-80
2020/12/01 12:06:45;;;;;;;;;;;;;;;;;;5089464;28;1660;-82
2020/12/01 12:09:15;;;;;;;;;;;;;;;;;;5206348;22;1961;-81
2020/12/01 12:11:44;;;;;;;;;;;;;;;;;;5150935;22;1938;-78
2020/12/01 12:14:20;;;;;;;;;;;;;;;;;;5135786;28;1792;-82
2020/12/01 12:16:49;;;;;;;;;;;;;;;;;;5120958;28;1969;-80
2020/12/01 12:22:19;;;;;;;;;;;;;;;;;;5146365;22;2001;-78
2020/12/01 12:28:01;;;;;;;;;;;;;;;;;;5113480;28;1936;-81
2020/12/01 12:30:30;;;;;;;;;;;;;;;;;;5111761;28;1741;-79
2020/12/01 12:33:17;;;;;;;;;;;;;;;;;;5116730;28;1710;-79
2020/12/01 12:36:01;;;;;;;;;;;;;;;;;;5193598;22;1835;-81
2020/12/01 12:38:55;;;;;;;;;;;;;;;;;;5175965;22;1879;-79
2020/12/01 12:55:20;;;;;;;;;;;;;;;;;;5063031;22;2889;-80
2020/12/01 13:11:16;;;;;;;;;;;;;;;;;;5181653;22;1674;-80
2020/12/01 13:13:44;;;;;;;;;;;;;;;;;;5062701;28;1574;-80
2020/12/01 13:48:08;;;;;;;;;;;;;;;;;;5965763;23;2008;-79
2020/12/01 13:50:36;;;;;;;;;;;;;;;;;;5039899;28;1801;-82
2020/12/01 13:55:45;;;;;;;;;;;;;;;;;;4921322;26;2178;-80
2020/12/01 13:58:18;;;;;;;;;;;;;;;;;;5010956;28;1962;-79
2020/12/01 14:00:46;;;;;;;;;;;;;;;;;;5000687;28;1778;-81
2020/12/01 14:03:14;;;;;;;;;;;;;;;;;;5007202;28;1385;-82
2020/12/01 14:05:46;;;;;;;;;;;;;;;;;;5013603;28;1742;-81
2020/12/01 14:08:13;;;;;;;;;;;;;;;;;;5049069;23;1684;-79
2020/12/01 14:10:41;;;;;;;;;;;;;;;;;;5028236;28;1670;-80
2020/12/01 14:13:09;;;;;;;;;;;;;;;;;;5042197;28;1647;-78
2020/12/01 14:15:36;;;;;;;;;;;;;;;;;;5039534;28;1530;-79
2020/12/01 14:18:04;;;;;;;;;;;;;;;;;;5029939;28;1882;-79
2020/12/01 14:20:33;;;;;;;;;;;;;;;;;;5031766;28;1628;-78
2020/12/01 14:23:01;;;;;;;;;;;;;;;;;;5022838;28;1540;-79
2020/12/01 14:25:28;;;;;;;;;;;;;;;;;;5032215;28;1580;-77
2020/12/01 14:27:55;;;;;;;;;;;;;;;;;;5034200;28;1409;-79
2020/12/01 14:30:23;;;;;;;;;;;;;;;;;;5020802;28;1456;-78
2020/12/01 14:32:49;;;;;;;;;;;;;;;;;;5027008;28;1868;-77
2020/12/01 14:35:23;;;;;;;;;;;;;;;;;;5032276;28;1556;-77
2020/12/01 14:37:51;;;;;;;;;;;;;;;;;;5030616;28;1906;-77
2020/12/01 14:40:21;;;;;;;;;;;;;;;;;;5032283;28;1809;-78
2020/12/01 14:42:48;;;;;;;;;;;;;;;;;;5030405;28;1619;-77
2020/12/01 14:45:15;;;;;;;;;;;;;;;;;;5031645;28;1512;-78
2020/12/01 14:47:59;;;;;;;;;;;;;;;;;;5030519;28;1507;-78
2020/12/01 14:50:29;;;;;;;;;;;;;;;;;;5030273;28;1433;-79
2020/12/01 14:53:02;;;;;;;;;;;;;;;;;;5031752;28;1106;-80
2020/12/01 14:55:36;;;;;;;;;;;;;;;;;;5033964;28;1029;-79
2020/12/01 14:58:18;;;;;;;;;;;;;;;;;;5026641;28;1983;-79
2020/12/01 15:00:52;;;;;;;;;;;;;;;;;;5023066;28;1568;-79
2020/12/01 15:03:45;;;;;;;;;;;;;;;;;;5031534;28;1396;-78
2020/12/01 15:06:15;;;;;;;;;;;;;;;;;;5034004;28;1676;-77
2020/12/01 15:08:53;;;;;;;;;;;;;;;;;;5032841;28;1640;-80
2020/12/01 15:11:34;;;;;;;;;;;;;;;;;;5031698;28;1748;-79
2020/12/01 15:14:03;;;;;;;;;;;;;;;;;;5034252;28;1578;-80
2020/12/01 15:16:32;;;;;;;;;;;;;;;;;;5030803;28;2005;-79
2020/12/01 15:19:01;;;;;;;;;;;;;;;;;;5035571;28;1901;-79
2020/12/01 15:21:35;;;;;;;;;;;;;;;;;;5035271;28;1563;-79
2020/12/01 15:24:06;;;;;;;;;;;;;;;;;;5034969;28;1671;-80
2020/12/01 15:26:34;;;;;;;;;;;;;;;;;;5033036;28;1723;-80
2020/12/01 15:29:03;;;;;;;;;;;;;;;;;;5033674;28;1089;-81
2020/12/01 15:31:36;;;;;;;;;;;;;;;;;;5037281;28;1093;-80
2020/12/01 15:34:18;;;;;;;;;;;;;;;;;;5041223;28;1127;-81
2020/12/01 15:36:45;;;;;;;;;;;;;;;;;;5034743;28;2000;-80
2020/12/01 15:39:13;;;;;;;;;;;;;;;;;;5034175;28;1640;-80
2020/12/01 15:41:42;;;;;;;;;;;;;;;;;;5032122;28;1610;-81
2020/12/01 15:44:13;;;;;;;;;;;;;;;;;;5043622;28;1530;-82
2020/12/01 15:46:42;;;;;;;;;;;;;;;;;;5035262;28;1671;-81
2020/12/01 15:58:01;;;;;;;;;;;;;;;;;;5056132;28;1879;-81
2020/12/01 16:00:49;;;;;;;;;;;;;;;;;;5042812;28;1774;-81
2020/12/01 16:06:16;;;;;;;;;;;;;;;;;;5150282;22;2086;-82
2020/12/01 16:08:58;;;;;;;;;;;;;;;;;;5017013;28;1687;-82
2020/12/01 16:14:23;;;;;;;;;;;;;;;;;;5590498;23;2103;-81
2020/12/01 16:17:17;;;;;;;;;;;;;;;;;;5074072;23;1867;-81
2020/12/01 16:20:00;;;;;;;;;;;;;;;;;;5106000;23;1956;-83
2020/12/01 16:22:46;;;;;;;;;;;;;;;;;;5057709;28;1039;-81
2020/12/01 16:25:24;;;;;;;;;;;;;;;;;;5057795;28;1017;-83
2020/12/01 16:28:25;;;;;;;;;;;;;;;;;;5053131;28;1549;-81
2020/12/01 16:31:05;;;;;;;;;;;;;;;;;;5070277;23;2056;-80
2020/12/01 16:33:44;;;;;;;;;;;;;;;;;;5083441;23;1960;-80
2020/12/01 16:36:12;;;;;;;;;;;;;;;;;;5027687;28;1849;-82
2020/12/01 16:38:43;;;;;;;;;;;;;;;;;;5028159;28;1979;-81
2020/12/01 16:41:17;;;;;;;;;;;;;;;;;;5014361;28;1683;-81
2020/12/01 16:44:06;;;;;;;;;;;;;;;;;;5022340;28;1502;-82
2020/12/01 16:46:41;;;;;;;;;;;;;;;;;;5023634;28;1348;-82
2020/12/01 16:49:11;;;;;;;;;;;;;;;;;;5031046;28;1638;-80
2020/12/01 16:51:48;;;;;;;;;;;;;;;;;;5030010;28;1793;-83
2020/12/01 17:00:04;;;;;;;;;;;;;;;;;;4704062;26;2681;-82
2020/12/01 17:02:57;;;;;;;;;;;;;;;;;;5143097;22;1966;-80
2020/12/01 17:05:32;;;;;;;;;;;;;;;;;;5051228;28;1819;-78
2020/12/01 17:08:04;;;;;;;;;;;;;;;;;;5061910;23;1922;-81
2020/12/01 17:10:35;;;;;;;;;;;;;;;;;;5053760;28;1696;-79
2020/12/01 17:13:26;;;;;;;;;;;;;;;;;;5048538;28;1555;-79
2020/12/01 17:16:03;;;;;;;;;;;;;;;;;;5025115;28;2216;-79
2020/12/01 17:18:33;;;;;;;;;;;;;;;;;;5037379;28;1975;-77
2020/12/01 17:21:01;;;;;;;;;;;;;;;;;;5045169;28;1726;-79
2020/12/01 17:23:30;;;;;;;;;;;;;;;;;;5043193;28;1726;-77
2020/12/01 17:26:00;;;;;;;;;;;;;;;;;;5042105;28;2025;-80
2020/12/01 17:28:28;;;;;;;;;;;;;;;;;;5025800;28;1552;-79
2020/12/01 17:31:01;;;;;;;;;;;;;;;;;;5021697;28;1433;-78
2020/12/01 17:33:36;;;;;;;;;;;;;;;;;;5036127;28;1533;-79
2020/12/01 17:36:09;;;;;;;;;;;;;;;;;;5014650;28;1581;-80
2020/12/01 17:38:38;;;;;;;;;;;;;;;;;;5031009;28;1965;-79
2020/12/01 17:41:11;;;;;;;;;;;;;;;;;;5030811;28;1598;-81
2020/12/01 17:43:42;;;;;;;;;;;;;;;;;;5029176;28;1684;-80
2020/12/01 17:46:21;;;;;;;;;;;;;;;;;;5039623;28;1542;-83
2020/12/01 17:48:51;;;;;;;;;;;;;;;;;;5030870;28;1615;-78
2020/12/01 17:54:13;;;;;;;;;;;;;;;;;;5167493;23;1933;-80
2020/12/01 17:59:33;;;;;;;;;;;;;;;;;;5800620;22;1972;-83
2020/12/01 18:02:01;;;;;;;;;;;;;;;;;;5042125;28;1355;-80
2020/12/01 18:04:29;;;;;;;;;;;;;;;;;;5036699;28;1652;-82
2020/12/01 18:07:02;;;;;;;;;;;;;;;;;;5042430;28;1541;-80
2020/12/01 18:09:36;;;;;;;;;;;;;;;;;;5039605;28;1827;-82
2020/12/01 18:12:09;;;;;;;;;;;;;;;;;;5050332;28;1619;-79
2020/12/01 18:14:44;;;;;;;;;;;;;;;;;;5045571;28;1663;-78
2020/12/01 18:17:29;;;;;;;;;;;;;;;;;;5041042;28;2007;-80
2020/12/01 18:20:07;;;;;;;;;;;;;;;;;;5050082;28;1698;-81
2020/12/01 18:22:38;;;;;;;;;;;;;;;;;;5052824;28;1714;-81
2020/12/01 18:25:11;;;;;;;;;;;;;;;;;;5050803;28;1873;-80
2020/12/01 18:27:40;;;;;;;;;;;;;;;;;;5050899;28;1434;-80
2020/12/01 18:30:08;;;;;;;;;;;;;;;;;;5048736;28;1104;-80
2020/12/01 18:32:41;;;;;;;;;;;;;;;;;;5046391;28;1739;-80
2020/12/01 18:35:13;;;;;;;;;;;;;;;;;;5049786;28;1790;-82
2020/12/01 18:37:45;;;;;;;;;;;;;;;;;;5078055;23;1887;-80
2020/12/01 18:42:52;;;;;;;;;;;;;;;;;;5058382;28;1545;-82
2020/12/01 18:47:57;;;;;;;;;;;;;;;;;;5106987;23;1816;-82
2020/12/01 18:58:10;;;;;;;;;;;;;;;;;;4906123;26;1867;-82
2020/12/01 19:00:53;;;;;;;;;;;;;;;;;;5048162;28;1396;-82
2020/12/01 19:03:31;;;;;;;;;;;;;;;;;;5051653;28;2032;-82
2020/12/01 19:06:17;;;;;;;;;;;;;;;;;;5655649;23;1953;-82
2020/12/01 19:09:04;;;;;;;;;;;;;;;;;;5138775;23;1857;-85
2020/12/01 19:11:53;;;;;;;;;;;;;;;;;;5052951;28;1572;-82
2020/12/01 19:14:22;;;;;;;;;;;;;;;;;;5202585;22;1888;-83
2020/12/01 19:21:55;;;;;;;;;;;;;;;;;;5244202;23;1982;-82
2020/12/01 19:24:25;;;;;;;;;;;;;;;;;;5052963;28;1781;-84
2020/12/01 19:27:05;;;;;;;;;;;;;;;;;;5485594;23;1951;-83
2020/12/01 19:29:46;;;;;;;;;;;;;;;;;;5218307;22;1941;-83
2020/12/01 19:32:16;;;;;;;;;;;;;;;;;;5052639;28;1676;-81
2020/12/01 19:34:45;;;;;;;;;;;;;;;;;;5045617;28;2001;-80
2020/12/01 19:37:19;;;;;;;;;;;;;;;;;;5048635;28;1953;-81
2020/12/01 19:39:48;;;;;;;;;;;;;;;;;;5049080;28;1202;-81
2020/12/01 19:42:17;;;;;;;;;;;;;;;;;;5052324;28;1718;-80
2020/12/01 19:45:04;;;;;;;;;;;;;;;;;;5052481;28;1931;-80
2020/12/01 19:47:50;;;;;;;;;;;;;;;;;;5108866;23;1896;-83
2020/12/01 19:50:31;;;;;;;;;;;;;;;;;;5050692;28;1077;-81
2020/12/01 19:52:58;;;;;;;;;;;;;;;;;;5033559;28;1040;-81
2020/12/01 19:55:31;;;;;;;;;;;;;;;;;;5044961;28;1715;-81
2020/12/01 19:57:58;;;;;;;;;;;;;;;;;;5046619;28;1906;-81
2020/12/01 20:00:42;;;;;;;;;;;;;;;;;;5047157;28;1571;-81
2020/12/01 20:03:11;;;;;;;;;;;;;;;;;;5135012;23;1870;-80
2020/12/01 20:05:43;;;;;;;;;;;;;;;;;;5044699;28;1738;-79